createdAt,value
2018-07-26T00:00:49.965Z,93.95
2018-07-26T00:01:49.891Z,93.56
2018-07-26T00:02:49.814Z,93.95
2018-07-26T00:03:49.740Z,94.24
2018-07-26T00:04:49.665Z,94.33
2018-07-26T00:05:49.593Z,93.37
2018-07-26T00:06:49.515Z,93.17
2018-07-26T00:07:49.453Z,93.23
2018-07-26T00:08:49.367Z,93.51
2018-07-26T00:09:49.293Z,93.32
2018-07-26T00:10:49.206Z,93.32
2018-07-26T00:11:49.131Z,93.41
2018-07-26T00:12:49.053Z,92.83
2018-07-26T00:13:48.979Z,92.93
2018-07-26T00:14:48.907Z,92.83
2018-07-26T00:15:48.830Z,93.03
2018-07-26T00:16:48.756Z,92.74
2018-07-26T00:17:48.682Z,92.55
2018-07-26T00:18:48.607Z,92.93
2018-07-26T00:19:48.533Z,92.65
2018-07-26T00:20:48.460Z,92.83
2018-07-26T00:21:48.382Z,92.83
2018-07-26T00:22:48.307Z,92.83
2018-07-26T00:23:48.232Z,92.50
2018-07-26T00:24:48.156Z,92.31
2018-07-26T00:25:48.081Z,91.92
2018-07-26T00:26:48.006Z,91.83
2018-07-26T00:27:47.932Z,91.73
2018-07-26T00:28:47.857Z,91.63
2018-07-26T00:29:47.782Z,91.53
2018-07-26T00:30:47.707Z,91.35
2018-07-26T00:31:47.634Z,91.05
2018-07-26T00:32:47.557Z,91.15
2018-07-26T00:33:47.481Z,91.15
2018-07-26T00:34:47.405Z,90.37
2018-07-26T00:35:47.319Z,89.95
2018-07-26T00:36:47.245Z,90.14
2018-07-26T00:37:47.182Z,90.14
2018-07-26T00:38:47.095Z,90.05
2018-07-26T00:39:47.020Z,89.56
2018-07-26T00:40:46.946Z,89.07
2018-07-26T00:41:46.885Z,88.98
2018-07-26T00:42:46.796Z,89.37
2018-07-26T00:43:46.722Z,89.65
2018-07-26T00:44:46.648Z,88.98
2018-07-26T00:45:46.570Z,88.89
2018-07-26T00:46:46.495Z,89.37
2018-07-26T00:47:46.419Z,88.79
2018-07-26T00:48:46.400Z,89.07
2018-07-26T00:49:46.271Z,88.11
2018-07-26T00:50:46.197Z,89.07
2018-07-26T00:51:46.122Z,88.98
2018-07-26T00:52:46.047Z,88.02
2018-07-26T00:53:45.960Z,87.92
2018-07-26T00:54:45.886Z,87.53
2018-07-26T00:55:45.811Z,88.11
2018-07-26T00:56:45.735Z,88.02
2018-07-26T00:57:45.659Z,87.59
2018-07-26T00:58:45.584Z,87.97
2018-07-26T00:59:45.510Z,88.07
2018-07-26T01:00:45.437Z,88.07
2018-07-26T01:01:45.365Z,87.49
2018-07-26T01:02:45.287Z,87.30
2018-07-26T01:03:45.211Z,87.68
2018-07-26T01:04:45.123Z,87.10
2018-07-26T01:05:45.047Z,86.43
2018-07-26T01:06:44.971Z,87.01
2018-07-26T01:07:44.897Z,86.72
2018-07-26T01:08:44.821Z,86.72
2018-07-26T01:09:44.760Z,86.72
2018-07-26T01:10:44.672Z,86.24
2018-07-26T01:11:44.597Z,85.66
2018-07-26T01:12:44.524Z,86.00
2018-07-26T01:13:44.449Z,85.81
2018-07-26T01:14:44.376Z,86.24
2018-07-26T01:15:44.300Z,85.23
2018-07-26T01:16:44.210Z,85.75
2018-07-26T01:17:44.147Z,85.91
2018-07-26T01:18:44.061Z,85.42
2018-07-26T01:19:43.986Z,85.03
2018-07-26T01:20:43.913Z,85.13
2018-07-26T01:21:43.839Z,85.13
2018-07-26T01:22:43.763Z,85.03
2018-07-26T01:23:43.691Z,85.03
2018-07-26T01:24:43.613Z,85.03
2018-07-26T01:25:43.527Z,84.94
2018-07-26T01:26:43.451Z,85.03
2018-07-26T01:27:43.376Z,85.03
2018-07-26T01:28:43.298Z,84.84
2018-07-26T01:29:43.237Z,83.98
2018-07-26T01:30:43.148Z,83.88
2018-07-26T01:31:43.074Z,84.07
2018-07-26T01:32:43.001Z,83.98
2018-07-26T01:33:42.942Z,84.17
2018-07-26T01:34:42.839Z,83.78
2018-07-26T01:35:42.767Z,83.88
2018-07-26T01:36:42.689Z,84.07
2018-07-26T01:37:42.613Z,84.36
2018-07-26T01:38:42.544Z,84.22
2018-07-26T01:39:42.464Z,83.36
2018-07-26T01:40:42.390Z,83.36
2018-07-26T01:41:42.319Z,83.64
2018-07-26T01:42:42.228Z,83.55
2018-07-26T01:43:42.153Z,83.45
2018-07-26T01:44:42.076Z,82.78
2018-07-26T01:45:42.000Z,82.97
2018-07-26T01:46:41.925Z,82.59
2018-07-26T01:47:41.863Z,82.20
2018-07-26T01:48:41.778Z,82.78
2018-07-26T01:49:41.703Z,82.10
2018-07-26T01:50:41.634Z,82.68
2018-07-26T01:51:41.543Z,82.49
2018-07-26T01:52:41.466Z,82.10
2018-07-26T01:53:41.389Z,82.49
2018-07-26T01:54:41.314Z,82.59
2018-07-26T01:55:41.240Z,83.16
2018-07-26T01:56:41.165Z,83.16
2018-07-26T01:57:41.090Z,82.29
2018-07-26T01:58:41.017Z,81.91
2018-07-26T01:59:40.927Z,82.39
2018-07-26T02:00:40.854Z,82.01
2018-07-26T02:01:40.787Z,82.01
2018-07-26T02:02:40.705Z,82.78
2018-07-26T02:03:40.630Z,82.39
2018-07-26T02:04:40.553Z,82.59
2018-07-26T02:05:40.477Z,82.68
2018-07-26T02:06:40.392Z,82.68
2018-07-26T02:07:40.316Z,82.20
2018-07-26T02:08:40.244Z,82.59
2018-07-26T02:09:40.168Z,82.49
2018-07-26T02:10:40.123Z,82.20
2018-07-26T02:11:40.019Z,81.81
2018-07-26T02:12:39.933Z,81.62
2018-07-26T02:13:39.857Z,82.10
2018-07-26T02:14:39.781Z,81.52
2018-07-26T02:15:39.706Z,82.10
2018-07-26T02:16:39.629Z,81.52
2018-07-26T02:17:39.554Z,81.43
2018-07-26T02:18:39.479Z,80.66
2018-07-26T02:19:39.393Z,80.85
2018-07-26T02:20:39.320Z,80.62
2018-07-26T02:21:39.245Z,80.91
2018-07-26T02:22:39.170Z,81.01
2018-07-26T02:23:39.096Z,80.33
2018-07-26T02:24:39.020Z,81.10
2018-07-26T02:25:38.944Z,80.43
2018-07-26T02:26:38.855Z,79.75
2018-07-26T02:27:38.780Z,80.04
2018-07-26T02:28:38.707Z,79.36
2018-07-26T02:29:38.630Z,79.36
2018-07-26T02:30:38.556Z,78.88
2018-07-26T02:31:38.486Z,78.79
2018-07-26T02:32:38.408Z,79.08
2018-07-26T02:33:38.322Z,77.92
2018-07-26T02:34:38.246Z,78.50
2018-07-26T02:35:38.171Z,77.69
2018-07-26T02:36:38.101Z,77.69
2018-07-26T02:37:38.019Z,77.50
2018-07-26T02:38:37.932Z,76.63
2018-07-26T02:39:37.872Z,76.44
2018-07-26T02:40:37.784Z,76.44
2018-07-26T02:41:37.709Z,76.25
2018-07-26T02:42:37.633Z,76.44
2018-07-26T02:43:37.559Z,76.25
2018-07-26T02:44:37.484Z,75.57
2018-07-26T02:45:37.397Z,75.76
2018-07-26T02:46:37.323Z,75.48
2018-07-26T02:47:37.248Z,75.96
2018-07-26T02:48:41.222Z,75.76
2018-07-26T02:49:39.722Z,75.28
2018-07-26T02:50:37.021Z,75.38
2018-07-26T02:51:36.938Z,75.57
2018-07-26T02:52:36.860Z,75.38
2018-07-26T02:53:36.785Z,75.09
2018-07-26T02:54:36.713Z,74.51
2018-07-26T02:55:36.635Z,74.41
2018-07-26T02:56:36.547Z,74.41
2018-07-26T02:57:36.471Z,74.09
2018-07-26T02:58:36.399Z,73.80
2018-07-26T02:59:36.322Z,73.90
2018-07-26T03:00:36.247Z,73.61
2018-07-26T03:01:36.160Z,73.32
2018-07-26T03:02:36.084Z,73.32
2018-07-26T03:03:36.009Z,73.32
2018-07-26T03:04:35.936Z,73.03
2018-07-26T03:05:35.862Z,72.74
2018-07-26T03:06:35.780Z,72.26
2018-07-26T03:07:35.713Z,71.78
2018-07-26T03:08:35.625Z,72.17
2018-07-26T03:09:35.548Z,71.59
2018-07-26T03:10:35.473Z,70.92
2018-07-26T03:11:35.398Z,70.53
2018-07-26T03:12:35.313Z,69.92
2018-07-26T03:13:35.237Z,70.34
2018-07-26T03:14:35.163Z,70.21
2018-07-26T03:15:35.089Z,69.34
2018-07-26T03:16:35.012Z,69.53
2018-07-26T03:17:34.926Z,69.82
2018-07-26T03:18:34.851Z,68.76
2018-07-26T03:19:34.776Z,68.48
2018-07-26T03:20:34.906Z,68.29
2018-07-26T03:21:34.629Z,67.71
2018-07-26T03:22:34.537Z,67.71
2018-07-26T03:23:34.461Z,67.51
2018-07-26T03:24:34.391Z,67.42
2018-07-26T03:25:34.313Z,67.42
2018-07-26T03:26:34.231Z,67.42
2018-07-26T03:27:34.154Z,66.36
2018-07-26T03:28:34.075Z,66.07
2018-07-26T03:29:34.000Z,65.59
2018-07-26T03:30:33.925Z,65.30
2018-07-26T03:31:33.837Z,64.92
2018-07-26T03:32:33.761Z,64.63
2018-07-26T03:33:33.687Z,64.15
2018-07-26T03:34:33.612Z,64.43
2018-07-26T03:35:33.537Z,63.95
2018-07-26T03:36:33.453Z,63.48
2018-07-26T03:37:33.379Z,62.99
2018-07-26T03:38:33.303Z,62.51
2018-07-26T03:39:33.227Z,62.32
2018-07-26T03:40:33.138Z,62.10
2018-07-26T03:41:33.063Z,61.43
2018-07-26T03:42:32.987Z,61.43
2018-07-26T03:43:32.947Z,60.85
2018-07-26T03:44:32.840Z,60.66
2018-07-26T03:45:32.754Z,60.85
2018-07-26T03:46:32.679Z,60.17
2018-07-26T03:47:32.604Z,60.66
2018-07-26T03:48:32.530Z,60.66
2018-07-26T03:49:32.440Z,59.69
2018-07-26T03:50:32.364Z,60.17
2018-07-26T03:51:32.291Z,60.27
2018-07-26T03:52:32.216Z,60.56
2018-07-26T03:53:32.142Z,60.46
2018-07-26T03:54:32.055Z,60.08
2018-07-26T03:55:31.979Z,60.17
2018-07-26T03:56:31.903Z,59.99
2018-07-26T03:57:31.830Z,60.66
2018-07-26T03:58:31.752Z,60.17
2018-07-26T03:59:31.667Z,60.66
2018-07-26T04:00:31.592Z,60.49
2018-07-26T04:01:31.517Z,61.07
2018-07-26T04:02:31.430Z,61.33
2018-07-26T04:03:31.356Z,61.46
2018-07-26T04:04:31.280Z,61.46
2018-07-26T04:05:31.232Z,62.80
2018-07-26T04:06:31.130Z,63.38
2018-07-26T04:07:31.042Z,65.69
2018-07-26T04:08:30.965Z,64.63
2018-07-26T04:09:30.890Z,65.11
2018-07-26T04:10:30.828Z,66.36
2018-07-26T04:11:30.729Z,66.55
2018-07-26T04:12:30.659Z,66.74
2018-07-26T04:13:30.581Z,67.51
2018-07-26T04:14:30.506Z,67.13
2018-07-26T04:15:30.420Z,68.38
2018-07-26T04:16:30.342Z,71.26
2018-07-26T04:17:30.267Z,71.11
2018-07-26T04:18:30.192Z,70.24
2018-07-26T04:19:30.117Z,74.19
2018-07-26T04:20:30.032Z,74.57
2018-07-26T04:21:29.956Z,73.80
2018-07-26T04:22:29.880Z,73.71
2018-07-26T04:23:29.810Z,73.32
2018-07-26T04:24:29.732Z,71.97
2018-07-26T04:25:29.645Z,74.96
2018-07-26T04:26:29.570Z,73.22
2018-07-26T04:27:29.498Z,76.59
2018-07-26T04:28:29.418Z,77.01
2018-07-26T04:29:29.332Z,75.86
2018-07-26T04:30:29.257Z,77.21
2018-07-26T04:31:29.182Z,77.50
2018-07-26T04:32:29.113Z,76.92
2018-07-26T04:33:29.035Z,78.46
2018-07-26T04:34:28.947Z,79.66
2018-07-26T04:35:28.874Z,77.83
2018-07-26T04:36:28.810Z,78.88
2018-07-26T04:37:28.721Z,78.50
2018-07-26T04:38:28.651Z,78.79
2018-07-26T04:39:28.560Z,79.98
2018-07-26T04:40:28.482Z,81.27
2018-07-26T04:41:28.408Z,84.07
2018-07-26T04:42:28.333Z,83.20
2018-07-26T04:43:28.259Z,84.69
2018-07-26T04:44:28.187Z,87.40
2018-07-26T04:45:28.098Z,86.76
2018-07-26T04:46:28.022Z,88.54
2018-07-26T04:47:27.947Z,90.61
2018-07-26T04:48:27.871Z,91.19
2018-07-26T04:49:27.797Z,92.45
2018-07-26T04:50:27.720Z,92.35
2018-07-26T04:51:27.633Z,91.24
2018-07-26T04:52:27.570Z,92.79
2018-07-26T04:53:27.487Z,92.59
2018-07-26T04:54:27.440Z,93.22
2018-07-26T04:55:27.334Z,93.41
2018-07-26T04:56:27.263Z,93.99
2018-07-26T04:57:27.187Z,94.04
2018-07-26T04:58:27.112Z,93.32
2018-07-26T04:59:27.025Z,93.60
2018-07-26T05:00:26.948Z,94.33
2018-07-26T05:01:26.874Z,92.64
2018-07-26T05:02:26.797Z,95.25
2018-07-26T05:03:26.722Z,92.79
2018-07-26T05:04:26.649Z,92.79
2018-07-26T05:05:26.574Z,92.49
2018-07-26T05:06:26.499Z,92.45
2018-07-26T05:07:26.425Z,92.07
2018-07-26T05:08:26.364Z,92.45
2018-07-26T05:09:26.275Z,89.17
2018-07-26T05:10:26.201Z,90.71
2018-07-26T05:11:26.125Z,91.19
2018-07-26T05:12:26.061Z,90.33
2018-07-26T05:13:25.973Z,89.45
2018-07-26T05:14:25.898Z,92.45
2018-07-26T05:15:25.823Z,88.45
2018-07-26T05:16:25.739Z,91.09
2018-07-26T05:17:25.668Z,89.94
2018-07-26T05:18:25.622Z,89.36
2018-07-26T05:19:25.515Z,88.49
2018-07-26T05:20:25.437Z,90.52
2018-07-26T05:21:25.362Z,92.07
2018-07-26T05:22:25.287Z,91.58
2018-07-26T05:23:25.213Z,92.25
2018-07-26T05:24:25.166Z,92.21
2018-07-26T05:25:25.063Z,91.53
2018-07-26T05:26:24.988Z,91.77
2018-07-26T05:27:24.913Z,92.16
2018-07-26T05:28:24.840Z,90.61
2018-07-26T05:29:24.765Z,91.00
2018-07-26T05:30:24.690Z,89.84
2018-07-26T05:31:24.615Z,92.07
2018-07-26T05:32:24.527Z,90.61
2018-07-26T05:33:24.451Z,93.13
2018-07-26T05:34:24.375Z,91.97
2018-07-26T05:35:24.301Z,91.00
2018-07-26T05:36:24.229Z,91.97
2018-07-26T05:37:24.172Z,92.93
2018-07-26T05:38:24.090Z,92.16
2018-07-26T05:39:24.003Z,90.33
2018-07-26T05:40:23.928Z,90.03
2018-07-26T05:41:23.853Z,92.35
2018-07-26T05:42:23.779Z,91.19
2018-07-26T05:43:23.705Z,90.81
2018-07-26T05:44:23.626Z,90.23
2018-07-26T05:45:23.551Z,92.65
2018-07-26T05:46:23.477Z,91.33
2018-07-26T05:47:23.402Z,91.72
2018-07-26T05:48:23.333Z,92.98
2018-07-26T05:49:23.254Z,93.56
2018-07-26T05:50:23.173Z,93.46
2018-07-26T05:51:23.093Z,93.46
2018-07-26T05:52:23.018Z,90.85
2018-07-26T05:53:23.006Z,92.40
2018-07-26T05:54:22.891Z,92.49
2018-07-26T05:55:22.790Z,93.95
2018-07-26T05:56:22.719Z,94.14
2018-07-26T05:57:22.643Z,92.98
2018-07-26T05:58:22.568Z,91.72
2018-07-26T05:59:22.492Z,90.70
2018-07-26T06:00:22.417Z,94.14
2018-07-26T06:01:22.342Z,93.60
2018-07-26T06:02:22.266Z,93.80
2018-07-26T06:03:22.194Z,93.60
2018-07-26T06:04:22.119Z,94.28
2018-07-26T06:05:22.044Z,94.18
2018-07-26T06:06:21.972Z,93.32
2018-07-26T06:07:21.894Z,93.51
2018-07-26T06:08:21.818Z,91.77
2018-07-26T06:09:21.742Z,93.41
2018-07-26T06:10:21.672Z,94.18
2018-07-26T06:11:21.592Z,94.28
2018-07-26T06:12:21.517Z,93.70
2018-07-26T06:13:21.442Z,93.51
2018-07-26T06:14:21.356Z,94.67
2018-07-26T06:15:21.281Z,94.48
2018-07-26T06:16:21.208Z,94.09
2018-07-26T06:17:21.134Z,94.13
2018-07-26T06:18:21.057Z,93.85
2018-07-26T06:19:20.982Z,92.78
2018-07-26T06:20:20.906Z,94.04
2018-07-26T06:21:20.830Z,93.26
2018-07-26T06:22:20.755Z,95.01
2018-07-26T06:23:20.681Z,94.13
2018-07-26T06:24:20.608Z,93.65
2018-07-26T06:25:20.533Z,94.43
2018-07-26T06:26:20.472Z,94.43
2018-07-26T06:27:20.383Z,94.33
2018-07-26T06:28:20.350Z,94.04
2018-07-26T06:29:20.233Z,94.76
2018-07-26T06:30:20.158Z,93.51
2018-07-26T06:31:20.084Z,94.67
2018-07-26T06:32:20.008Z,95.44
2018-07-26T06:33:19.999Z,94.28
2018-07-26T06:34:19.857Z,94.76
2018-07-26T06:35:19.782Z,94.28
2018-07-26T06:36:19.722Z,93.21
2018-07-26T06:37:19.634Z,94.09
2018-07-26T06:38:19.559Z,95.25
2018-07-26T06:39:19.485Z,93.89
2018-07-26T06:40:19.421Z,94.62
2018-07-26T06:41:19.333Z,95.49
2018-07-26T06:42:19.257Z,94.71
2018-07-26T06:43:19.183Z,94.23
2018-07-26T06:44:19.109Z,94.71
2018-07-26T06:45:19.038Z,94.04
2018-07-26T06:46:18.958Z,94.13
2018-07-26T06:47:18.885Z,95.20
2018-07-26T06:48:18.811Z,94.04
2018-07-26T06:49:18.738Z,94.42
2018-07-26T06:50:18.662Z,93.88
2018-07-26T06:51:18.598Z,94.47
2018-07-26T06:52:18.509Z,94.08
2018-07-26T06:53:18.449Z,94.47
2018-07-26T06:54:18.359Z,94.47
2018-07-26T06:55:18.285Z,94.27
2018-07-26T06:56:18.214Z,93.98
2018-07-26T06:57:18.149Z,93.88
2018-07-26T06:58:18.077Z,93.79
2018-07-26T06:59:17.999Z,93.93
2018-07-26T07:00:17.925Z,94.90
2018-07-26T07:01:17.850Z,94.90
2018-07-26T07:02:17.775Z,94.23
2018-07-26T07:03:17.701Z,92.77
2018-07-26T07:04:17.624Z,92.86
2018-07-26T07:05:17.549Z,94.03
2018-07-26T07:06:17.473Z,94.32
2018-07-26T07:07:17.399Z,94.07
2018-07-26T07:08:17.327Z,93.88
2018-07-26T07:09:17.250Z,93.40
2018-07-26T07:10:17.176Z,93.30
2018-07-26T07:11:17.113Z,92.33
2018-07-26T07:12:17.048Z,92.91
2018-07-26T07:13:16.961Z,93.20
2018-07-26T07:14:16.887Z,92.28
2018-07-26T07:15:16.812Z,89.56
2018-07-26T07:16:16.737Z,89.95
2018-07-26T07:17:16.662Z,87.33
2018-07-26T07:18:16.590Z,90.24
2018-07-26T07:19:16.511Z,88.93
2018-07-26T07:20:16.440Z,85.33
2018-07-26T07:21:16.366Z,84.56
2018-07-26T07:22:16.302Z,83.10
2018-07-26T07:23:16.229Z,82.17
2018-07-26T07:24:16.150Z,81.01
2018-07-26T07:25:16.084Z,81.49
2018-07-26T07:26:16.001Z,84.11
2018-07-26T07:27:15.926Z,81.78
2018-07-26T07:28:15.853Z,84.60
2018-07-26T07:29:15.790Z,81.73
2018-07-26T07:30:15.717Z,81.34
2018-07-26T07:31:15.640Z,82.21
2018-07-26T07:32:15.565Z,80.36
2018-07-26T07:33:15.500Z,79.92
2018-07-26T07:34:15.415Z,76.75
2018-07-26T07:35:15.355Z,72.60
2018-07-26T07:36:15.277Z,70.40
2018-07-26T07:37:15.202Z,68.38
2018-07-26T07:38:15.139Z,68.19
2018-07-26T07:39:15.079Z,66.99
2018-07-26T07:40:14.993Z,64.42
2018-07-26T07:41:14.916Z,63.28
2018-07-26T07:42:14.854Z,61.59
2018-07-26T07:43:14.780Z,61.91
2018-07-26T07:44:14.704Z,60.47
2018-07-26T07:45:14.639Z,59.30
2018-07-26T07:46:14.564Z,59.43
2018-07-26T07:47:14.536Z,58.31
2018-07-26T07:48:14.428Z,57.86
2018-07-26T07:49:14.365Z,56.12
2018-07-26T07:50:14.293Z,56.56
2018-07-26T07:51:14.229Z,55.96
2018-07-26T07:52:14.161Z,56.46
2018-07-26T07:53:14.096Z,56.36
2018-07-26T07:54:14.031Z,59.07
2018-07-26T07:55:13.961Z,57.11
2018-07-26T07:56:13.879Z,55.81
2018-07-26T07:57:13.816Z,56.43
2018-07-26T07:58:13.754Z,56.72
2018-07-26T07:59:13.679Z,57.28
2018-07-26T08:00:13.619Z,56.52
2018-07-26T08:01:13.558Z,56.56
2018-07-26T08:02:13.484Z,54.99
2018-07-26T08:03:13.419Z,55.08
2018-07-26T08:04:13.356Z,56.09
2018-07-26T08:05:13.324Z,54.72
2018-07-26T08:06:13.217Z,54.06
2018-07-26T08:07:13.155Z,54.19
2018-07-26T08:08:13.082Z,53.36
2018-07-26T08:09:13.020Z,52.40
2018-07-26T08:10:12.958Z,53.20
2018-07-26T08:11:12.922Z,52.35
2018-07-26T08:12:12.821Z,53.38
2018-07-26T08:13:12.758Z,53.74
2018-07-26T08:14:12.681Z,53.77
2018-07-26T08:15:12.617Z,53.67
2018-07-26T08:16:12.557Z,54.16
2018-07-26T08:17:12.495Z,53.06
2018-07-26T08:18:12.420Z,52.79
2018-07-26T08:19:12.358Z,53.35
2018-07-26T08:20:12.295Z,53.50
2018-07-26T08:21:12.235Z,53.38
2018-07-26T08:22:12.159Z,52.67
2018-07-26T08:23:12.095Z,52.79
2018-07-26T08:24:12.037Z,51.90
2018-07-26T08:25:11.970Z,54.69
2018-07-26T08:26:11.907Z,55.24
2018-07-26T08:27:11.838Z,52.45
2018-07-26T08:28:11.770Z,50.29
2018-07-26T08:29:11.711Z,51.22
2018-07-26T08:30:11.652Z,52.35
2018-07-26T08:31:11.572Z,51.64
2018-07-26T08:32:11.508Z,53.20
2018-07-26T08:33:11.444Z,52.37
2018-07-26T08:34:11.383Z,51.52
2018-07-26T08:35:11.324Z,50.54
2018-07-26T08:36:11.244Z,48.57
2018-07-26T08:37:11.182Z,48.89
2018-07-26T08:38:11.119Z,48.67
2018-07-26T08:39:11.058Z,48.08
2018-07-26T08:40:10.998Z,48.67
2018-07-26T08:41:10.949Z,48.94
2018-07-26T08:42:10.860Z,48.28
2018-07-26T08:43:10.797Z,51.56
2018-07-26T08:44:10.733Z,50.63
2018-07-26T08:45:10.672Z,49.43
2018-07-26T08:46:10.599Z,48.74
2018-07-26T08:47:10.534Z,48.82
2018-07-26T08:48:10.529Z,48.55
2018-07-26T08:49:10.411Z,48.92
2018-07-26T08:50:10.348Z,50.22
2018-07-26T08:51:10.287Z,48.40
2018-07-26T08:52:10.263Z,46.97
2018-07-26T08:53:10.162Z,48.43
2018-07-26T08:54:10.122Z,49.04
2018-07-26T08:55:10.028Z,48.69
2018-07-26T08:56:09.961Z,47.27
2018-07-26T08:57:09.896Z,46.95
2018-07-26T08:58:09.840Z,48.89
2018-07-26T08:59:09.788Z,48.43
2018-07-26T09:00:09.712Z,48.15
2018-07-26T09:01:09.660Z,47.00
2018-07-26T09:02:09.575Z,45.89
2018-07-26T09:03:09.513Z,47.17
2018-07-26T09:04:09.447Z,47.49
2018-07-26T09:05:09.433Z,46.95
2018-07-26T09:06:09.324Z,46.56
2018-07-26T09:07:09.261Z,47.54
2018-07-26T09:08:09.200Z,46.26
2018-07-26T09:09:09.140Z,46.48
2018-07-26T09:10:09.089Z,44.77
2018-07-26T09:11:09.005Z,46.88
2018-07-26T09:12:08.936Z,47.39
2018-07-26T09:13:08.873Z,47.69
2018-07-26T09:14:08.812Z,47.00
2018-07-26T09:15:08.752Z,45.90
2018-07-26T09:16:08.689Z,47.10
2018-07-26T09:17:08.671Z,47.32
2018-07-26T09:18:08.565Z,47.56
2018-07-26T09:19:08.514Z,46.31
2018-07-26T09:20:08.440Z,45.52
2018-07-26T09:21:08.374Z,45.17
2018-07-26T09:22:08.315Z,43.79
2018-07-26T09:23:08.238Z,44.01
2018-07-26T09:24:08.174Z,42.97
2018-07-26T09:25:08.113Z,44.46
2018-07-26T09:26:08.053Z,44.37
2018-07-26T09:27:07.988Z,44.89
2018-07-26T09:28:07.927Z,45.40
2018-07-26T09:29:07.866Z,45.15
2018-07-26T09:30:07.802Z,43.50
2018-07-26T09:31:07.742Z,42.71
2018-07-26T09:32:07.675Z,42.69
2018-07-26T09:33:07.666Z,44.65
2018-07-26T09:34:07.564Z,43.83
2018-07-26T09:35:07.491Z,44.22
2018-07-26T09:36:07.431Z,44.56
2018-07-26T09:37:07.366Z,43.87
2018-07-26T09:38:07.303Z,42.79
2018-07-26T09:39:07.242Z,43.50
2018-07-26T09:40:07.178Z,44.34
2018-07-26T09:41:07.134Z,43.61
2018-07-26T09:42:07.053Z,42.80
2018-07-26T09:43:06.991Z,42.63
2018-07-26T09:44:06.940Z,44.01
2018-07-26T09:45:06.865Z,43.06
2018-07-26T09:46:06.802Z,43.16
2018-07-26T09:47:06.743Z,44.94
2018-07-26T09:48:06.669Z,44.92
2018-07-26T09:49:06.605Z,47.06
2018-07-26T09:50:06.542Z,48.70
2018-07-26T09:51:06.479Z,45.83
2018-07-26T09:52:06.415Z,45.23
2018-07-26T09:53:06.358Z,46.77
2018-07-26T09:54:06.293Z,46.97
2018-07-26T09:55:06.241Z,47.18
2018-07-26T09:56:06.155Z,46.89
2018-07-26T09:57:06.103Z,47.57
2018-07-26T09:58:06.042Z,47.30
2018-07-26T09:59:05.967Z,45.89
2018-07-26T10:00:05.906Z,46.69
2018-07-26T10:01:05.844Z,46.72
2018-07-26T10:02:05.770Z,47.45
2018-07-26T10:03:05.708Z,47.57
2018-07-26T10:04:05.642Z,48.43
2018-07-26T10:05:05.567Z,48.31
2018-07-26T10:06:05.504Z,48.72
2018-07-26T10:07:05.442Z,47.75
2018-07-26T10:08:05.395Z,47.16
2018-07-26T10:09:05.308Z,46.23
2018-07-26T10:10:05.246Z,47.33
2018-07-26T10:11:05.187Z,48.63
2018-07-26T10:12:05.106Z,48.36
2018-07-26T10:13:05.044Z,44.98
2018-07-26T10:14:05.051Z,44.70
2018-07-26T10:15:04.942Z,43.60
2018-07-26T10:16:04.847Z,44.09
2018-07-26T10:17:04.782Z,45.44
2018-07-26T10:18:04.708Z,45.15
2018-07-26T10:19:04.647Z,45.37
2018-07-26T10:20:04.637Z,45.37
2018-07-26T10:21:04.506Z,44.80
2018-07-26T10:22:04.445Z,44.88
2018-07-26T10:23:04.370Z,46.03
2018-07-26T10:24:04.309Z,45.54
2018-07-26T10:25:04.247Z,42.99
2018-07-26T10:26:04.172Z,44.83
2018-07-26T10:27:04.111Z,46.23
2018-07-26T10:28:04.047Z,45.83
2018-07-26T10:29:03.977Z,45.83
2018-07-26T10:30:03.923Z,45.76
2018-07-26T10:31:03.847Z,48.87
2018-07-26T10:32:03.774Z,48.30
2018-07-26T10:33:03.720Z,45.76
2018-07-26T10:34:03.633Z,46.25
2018-07-26T10:35:03.572Z,43.58
2018-07-26T10:36:03.498Z,42.41
2018-07-26T10:37:03.435Z,44.24
2018-07-26T10:38:03.373Z,44.34
2018-07-26T10:39:03.298Z,44.76
2018-07-26T10:40:03.233Z,44.85
2018-07-26T10:41:03.172Z,44.85
2018-07-26T10:42:03.097Z,45.52
2018-07-26T10:43:03.033Z,45.98
2018-07-26T10:44:02.958Z,46.18
2018-07-26T10:45:02.897Z,46.50
2018-07-26T10:46:02.833Z,45.42
2018-07-26T10:47:02.772Z,45.52
2018-07-26T10:48:02.708Z,44.73
2018-07-26T10:49:02.628Z,44.93
2018-07-26T10:50:02.624Z,45.52
2018-07-26T10:51:02.500Z,46.13
2018-07-26T10:52:02.423Z,46.27
2018-07-26T10:53:02.375Z,44.04
2018-07-26T10:54:02.285Z,43.22
2018-07-26T10:55:02.223Z,40.88
2018-07-26T10:56:02.179Z,41.39
2018-07-26T10:57:02.088Z,40.98
2018-07-26T10:58:02.025Z,41.14
2018-07-26T10:59:01.963Z,42.32
2018-07-26T11:00:01.909Z,42.25
2018-07-26T11:01:01.827Z,42.55
2018-07-26T11:02:01.775Z,41.37
2018-07-26T11:03:01.706Z,42.94
2018-07-26T11:04:01.625Z,40.58
2018-07-26T11:05:01.575Z,40.09
2018-07-26T11:06:01.500Z,38.82
2018-07-26T11:07:01.436Z,38.38
2018-07-26T11:08:01.379Z,36.55
2018-07-26T11:09:01.301Z,37.27
2018-07-26T11:10:01.239Z,35.93
2018-07-26T11:11:01.176Z,35.20
2018-07-26T11:12:01.112Z,35.86
2018-07-26T11:13:01.051Z,37.12
2018-07-26T11:14:00.987Z,37.20
2018-07-26T11:15:00.964Z,37.61
2018-07-26T11:16:00.854Z,37.71
2018-07-26T11:17:00.790Z,37.20
2018-07-26T11:18:00.730Z,37.85
2018-07-26T11:19:00.670Z,37.40
2018-07-26T11:20:00.603Z,34.79
2018-07-26T11:21:00.540Z,35.00
2018-07-26T11:22:00.478Z,35.12
2018-07-26T11:23:00.414Z,33.85
2018-07-26T11:24:00.351Z,33.47
2018-07-26T11:25:00.288Z,32.93
2018-07-26T11:26:00.226Z,33.26
2018-07-26T11:27:00.164Z,32.40
2018-07-26T11:28:00.108Z,32.24
2018-07-26T11:29:00.054Z,32.40
2018-07-26T11:30:00.004Z,32.37
2018-07-26T11:30:59.917Z,33.46
2018-07-26T11:31:59.854Z,33.87
2018-07-26T11:32:59.794Z,34.92
2018-07-26T11:33:59.729Z,33.13
2018-07-26T11:34:59.666Z,34.51
2018-07-26T11:35:59.631Z,33.25
2018-07-26T11:36:59.555Z,33.44
2018-07-26T11:37:59.499Z,33.28
2018-07-26T11:38:59.427Z,32.29
2018-07-26T11:39:59.370Z,32.90
2018-07-26T11:40:59.310Z,30.81
2018-07-26T11:41:59.242Z,29.78
2018-07-26T11:42:59.180Z,31.06
2018-07-26T11:43:59.116Z,33.28
2018-07-26T11:44:59.053Z,32.98
2018-07-26T11:45:58.989Z,33.23
2018-07-26T11:46:58.929Z,33.56
2018-07-26T11:47:58.878Z,31.60
2018-07-26T11:48:58.804Z,32.57
2018-07-26T11:49:58.783Z,33.16
2018-07-26T11:50:58.690Z,33.91
2018-07-26T11:51:58.631Z,33.31
2018-07-26T11:52:58.568Z,33.72
2018-07-26T11:53:58.510Z,34.39
2018-07-26T11:54:58.443Z,33.74
2018-07-26T11:55:58.380Z,33.79
2018-07-26T11:56:58.357Z,32.60
2018-07-26T11:57:58.255Z,32.98
2018-07-26T11:58:58.205Z,33.09
2018-07-26T11:59:58.134Z,33.95
2018-07-26T12:00:58.068Z,34.79
2018-07-26T12:01:58.008Z,34.43
2018-07-26T12:02:57.944Z,32.57
2018-07-26T12:03:57.907Z,32.01
2018-07-26T12:04:57.832Z,33.31
2018-07-26T12:05:57.769Z,31.54
2018-07-26T12:06:57.707Z,31.32
2018-07-26T12:07:57.644Z,31.53
2018-07-26T12:08:57.582Z,31.22
2018-07-26T12:09:57.517Z,32.42
2018-07-26T12:10:57.456Z,32.43
2018-07-26T12:11:57.395Z,31.84
2018-07-26T12:12:57.333Z,31.08
2018-07-26T12:13:57.269Z,31.10
2018-07-26T12:14:57.207Z,31.77
2018-07-26T12:15:57.156Z,32.24
2018-07-26T12:16:57.092Z,33.09
2018-07-26T12:17:57.031Z,33.82
2018-07-26T12:18:56.968Z,33.45
2018-07-26T12:19:56.908Z,32.17
2018-07-26T12:20:56.845Z,32.28
2018-07-26T12:21:56.787Z,32.03
2018-07-26T12:22:56.721Z,31.73
2018-07-26T12:23:56.657Z,31.02
2018-07-26T12:24:56.593Z,31.09
2018-07-26T12:25:56.532Z,31.09
2018-07-26T12:26:56.583Z,30.20
2018-07-26T12:27:56.422Z,31.17
2018-07-26T12:28:56.361Z,31.67
2018-07-26T12:29:56.296Z,33.46
2018-07-26T12:30:56.237Z,32.56
2018-07-26T12:31:56.169Z,31.29
2018-07-26T12:32:56.108Z,31.02
2018-07-26T12:33:56.044Z,30.92
2018-07-26T12:34:55.982Z,31.73
2018-07-26T12:35:55.926Z,30.64
2018-07-26T12:36:55.858Z,30.00
2018-07-26T12:37:55.797Z,30.78
2018-07-26T12:38:55.744Z,27.81
2018-07-26T12:39:55.686Z,28.77
2018-07-26T12:40:55.622Z,28.80
2018-07-26T12:41:55.560Z,28.85
2018-07-26T12:42:55.498Z,28.06
2018-07-26T12:43:55.433Z,27.94
2018-07-26T12:44:55.372Z,28.47
2018-07-26T12:45:55.309Z,27.89
2018-07-26T12:46:55.245Z,27.21
2018-07-26T12:47:55.245Z,27.02
2018-07-26T12:48:55.136Z,25.43
2018-07-26T12:49:55.066Z,26.01
2018-07-26T12:50:55.013Z,26.97
2018-07-26T12:51:54.948Z,27.44